»·PEaware :: N1399 KYKM-KPDX

N1399 :: KYKM-KPDX

FLIGHT INFORMATION

Flight Status: Arrived
Operator: Privately registered:
United States
More flights under this callsign
Pilot: David C. (16084)
Aircraft: ECLIPSE 500
(EA50)
More flights by this aircraft type
Origin: KYKM Yakima Air Term/Mcallister
United States
Destination: KPDX Portland Intl
United States
More flights between these airports :: More routes between these airports
Route: +NACHES4 LTJ YENTL HHOOD4
File this flight plan on PilotEdge
Remarks:
Altitude:
(Current/Filed)
20,000ft
Speed:
(Current/Filed)
343kts
Departed: 06-Jan-18 11:38 AM
Arrived: 06-Jan-18 12:13 PM
Distance/Time
Traveled:
103nm/0:35
Distance/Time
To Go:
Arrived

Flight Plot

Page will automatically refresh every two minutes.

Flight plan parsing failed; only flown route is shown


Map Options




Map Legend


Flown Route
Filed Route
Departure Airport
Arrival Airport
Navaid (VOR, NDB)
Fix

Horizontal Profiles

Position Reports

Time Latitude Longitude Heading Altitude Ground
Speed
06-Jan-18 11:29 46.570241 -120.536099 270 1102ft 0kts
06-Jan-18 11:30 46.570241 -120.536099 270 1102ft 0kts
06-Jan-18 11:31 46.570241 -120.536099 270 1102ft 0kts
06-Jan-18 11:32 46.570241 -120.536099 270 1102ft 0kts
06-Jan-18 11:33 46.570241 -120.536099 270 1102ft 0kts
06-Jan-18 11:34 46.570241 -120.536099 270 1102ft 0kts
06-Jan-18 11:35 46.570241 -120.536099 270 1102ft 0kts
06-Jan-18 11:36 46.570241 -120.536099 270 1102ft 0kts
06-Jan-18 11:37 46.570241 -120.536099 270 1102ft 0kts
06-Jan-18 11:38 46.570241 -120.536099 270 1102ft 0kts
06-Jan-18 11:39 46.570241 -120.536099 270 1102ft 0kts
06-Jan-18 11:40 46.570241 -120.536099 270 1102ft 0kts
06-Jan-18 11:41 46.570183 -120.536248 210 1102ft 4kts
06-Jan-18 11:42 46.569136 -120.532633 145 1102ft 20kts
06-Jan-18 11:43 46.566544 -120.531500 177 1102ft 0kts
06-Jan-18 11:44 46.568893 -120.544916 289 1204ft 119kts
06-Jan-18 11:45 46.599052 -120.581445 334 3883ft 171kts
06-Jan-18 11:46 46.641827 -120.610311 334 6992ft 178kts
06-Jan-18 11:47 46.678005 -120.651035 264 9805ft 186kts
06-Jan-18 11:48 46.622396 -120.693635 198 9981ft 260kts
06-Jan-18 11:49 46.551857 -120.725494 198 9981ft 273kts
06-Jan-18 11:50 46.478105 -120.758884 198 9981ft 283kts
06-Jan-18 11:51 46.403676 -120.792547 198 9981ft 283kts
06-Jan-18 11:52 46.331853 -120.824872 199 12347ft 258kts
06-Jan-18 11:53 46.271008 -120.852045 203 15837ft 211kts
06-Jan-18 11:54 46.216826 -120.876499 205 18122ft 208kts
06-Jan-18 11:55 46.160950 -120.901689 206 19992ft 218kts
06-Jan-18 11:56 46.096266 -120.930974 204 20324ft 283kts
06-Jan-18 11:57 46.012861 -120.968136 203 20341ft 343kts
06-Jan-18 11:58 45.917890 -121.010212 202 20340ft 367kts
06-Jan-18 11:59 45.821578 -121.052760 203 20334ft 369kts
06-Jan-18 12:00 45.727075 -121.103510 228 19726ft 350kts
06-Jan-18 12:01 45.683337 -121.208072 249 18223ft 301kts
06-Jan-18 12:02 45.647829 -121.314085 249 16706ft 293kts
06-Jan-18 12:03 45.613424 -121.417408 250 15188ft 286kts
06-Jan-18 12:04 45.583862 -121.520836 251 13671ft 280kts
06-Jan-18 12:05 45.555269 -121.622532 250 12156ft 276kts
06-Jan-18 12:06 45.529840 -121.723249 270 10640ft 269kts
06-Jan-18 12:07 45.533423 -121.829123 274 9145ft 268kts
06-Jan-18 12:08 45.537088 -121.931235 274 7646ft 252kts
06-Jan-18 12:09 45.541615 -122.021080 276 6682ft 207kts
06-Jan-18 12:10 45.511020 -122.098145 231 5678ft 243kts
06-Jan-18 12:11 45.468499 -122.161674 224 5976ft 230kts
06-Jan-18 12:12 45.446220 -122.232122 305 4932ft 211kts
06-Jan-18 12:13 45.476404 -122.297517 306 3977ft 184kts
06-Jan-18 12:14 45.501209 -122.356647 300 3383ft 179kts
06-Jan-18 12:15 45.525340 -122.418001 299 2444ft 179kts
06-Jan-18 12:16 45.548057 -122.475960 299 1527ft 157kts
06-Jan-18 12:17 45.567734 -122.526276 299 740ft 125kts
06-Jan-18 12:18 45.581845 -122.562396 300 186ft 99kts
06-Jan-18 12:19 45.590296 -122.586300 270 32ft 8kts
06-Jan-18 12:20 45.589077 -122.584176 120 32ft 21kts

Navigation Log

Ident Type
Flight plan parsing failed, navigation log unavailable